createdAt,value
2017-07-19T00:01:23.080Z,9.80
2017-07-19T00:03:50.384Z,9.50
2017-07-19T00:06:17.721Z,9.50
2017-07-19T00:08:45.018Z,8.90
2017-07-19T00:11:12.324Z,9.37
2017-07-19T00:13:39.651Z,9.40
2017-07-19T00:16:06.949Z,9.37
2017-07-19T00:18:34.277Z,9.37
2017-07-19T00:21:01.606Z,9.67
2017-07-19T00:23:29.050Z,9.53
2017-07-19T00:25:56.360Z,9.40
2017-07-19T00:28:23.676Z,9.00
2017-07-19T00:30:51.039Z,9.73
2017-07-19T00:33:18.356Z,9.60
2017-07-19T00:35:45.662Z,10.20
2017-07-19T00:38:12.999Z,10.43
2017-07-19T00:40:40.309Z,9.20
2017-07-19T00:43:07.624Z,9.43
2017-07-19T00:45:34.930Z,9.27
2017-07-19T00:48:02.234Z,10.00
2017-07-19T00:50:29.561Z,10.20
2017-07-19T00:52:56.879Z,10.40
2017-07-19T00:55:24.206Z,9.97
2017-07-19T00:57:51.527Z,11.07
2017-07-19T01:00:18.849Z,9.97
2017-07-19T01:02:46.185Z,10.80
2017-07-19T01:05:13.524Z,9.57
2017-07-19T01:07:40.835Z,10.30
2017-07-19T01:10:08.162Z,9.80
2017-07-19T01:12:35.793Z,10.30
2017-07-19T01:15:03.303Z,9.60
2017-07-19T01:17:30.623Z,9.60
2017-07-19T01:19:57.959Z,10.40
2017-07-19T01:22:25.275Z,10.47
2017-07-19T01:24:52.599Z,9.47
2017-07-19T01:27:19.945Z,10.73
2017-07-19T01:29:47.253Z,10.83
2017-07-19T01:32:14.597Z,10.53
2017-07-19T01:34:42.245Z,11.20
2017-07-19T01:37:09.565Z,10.83
2017-07-19T01:39:36.883Z,10.90
2017-07-19T01:42:04.215Z,10.63
2017-07-19T01:44:31.504Z,10.13
2017-07-19T01:46:58.847Z,10.77
2017-07-19T01:49:26.195Z,10.20
2017-07-19T01:51:53.525Z,10.53
2017-07-19T01:54:20.861Z,10.70
2017-07-19T01:56:48.171Z,10.43
2017-07-19T01:59:15.490Z,10.90
2017-07-19T02:01:42.802Z,11.17
2017-07-19T02:04:10.466Z,11.27
2017-07-19T02:06:37.787Z,10.73
2017-07-19T02:09:05.129Z,10.63
2017-07-19T02:11:32.440Z,11.23
2017-07-19T02:13:59.778Z,10.83
2017-07-19T02:16:27.090Z,10.73
2017-07-19T02:18:54.404Z,11.33
2017-07-19T02:21:21.737Z,11.30
2017-07-19T02:23:49.091Z,10.97
2017-07-19T02:26:16.410Z,10.40
2017-07-19T02:28:43.789Z,11.60
2017-07-19T02:31:11.074Z,11.23
2017-07-19T02:33:38.440Z,10.67
2017-07-19T02:36:05.752Z,11.27
2017-07-19T02:38:33.787Z,10.80
2017-07-19T02:41:01.109Z,11.90
2017-07-19T02:43:28.835Z,11.40
2017-07-19T02:45:56.179Z,10.73
2017-07-19T02:48:23.510Z,11.93
2017-07-19T02:50:50.852Z,11.57
2017-07-19T02:53:18.185Z,11.60
2017-07-19T02:55:45.538Z,11.87
2017-07-19T02:58:12.850Z,11.20
2017-07-19T03:00:40.185Z,11.67
2017-07-19T03:03:07.494Z,12.37
2017-07-19T03:05:34.827Z,11.73
2017-07-19T03:08:02.143Z,13.43
2017-07-19T03:10:29.487Z,11.60
2017-07-19T03:12:56.789Z,12.70
2017-07-19T03:15:24.085Z,12.07
2017-07-19T03:17:51.408Z,11.90
2017-07-19T03:20:18.740Z,12.33
2017-07-19T03:22:49.070Z,12.03
2017-07-19T03:25:16.384Z,11.30
2017-07-19T03:27:43.749Z,11.80
2017-07-19T03:30:11.102Z,11.73
2017-07-19T03:32:38.410Z,12.27
2017-07-19T03:35:05.729Z,12.17
2017-07-19T03:37:33.052Z,11.50
2017-07-19T03:40:00.369Z,11.93
2017-07-19T03:42:27.677Z,11.70
2017-07-19T03:44:55.015Z,11.57
2017-07-19T03:47:22.377Z,11.57
2017-07-19T03:49:49.701Z,12.10
2017-07-19T03:52:17.044Z,11.90
2017-07-19T03:54:44.407Z,11.40
2017-07-19T03:57:11.700Z,11.23
2017-07-19T03:59:39.029Z,10.87
2017-07-19T04:02:06.341Z,11.73
2017-07-19T04:04:33.695Z,11.40
2017-07-19T04:07:01.016Z,12.03
2017-07-19T04:09:28.334Z,11.57
2017-07-19T04:11:55.650Z,11.60
2017-07-19T04:14:22.977Z,10.40
2017-07-19T04:16:50.285Z,11.90
2017-07-19T04:19:17.623Z,11.00
2017-07-19T04:21:44.930Z,11.77
2017-07-19T04:24:12.273Z,11.10
2017-07-19T04:26:39.958Z,11.50
2017-07-19T04:29:07.257Z,11.70
2017-07-19T04:31:34.613Z,11.10
2017-07-19T04:34:01.934Z,10.90
2017-07-19T04:36:29.290Z,11.40
2017-07-19T04:38:56.647Z,11.53
2017-07-19T04:41:23.991Z,11.47
2017-07-19T04:43:51.353Z,10.50
2017-07-19T04:46:18.691Z,10.20
2017-07-19T04:48:46.004Z,11.30
2017-07-19T04:51:13.342Z,10.43
2017-07-19T04:53:40.693Z,10.10
2017-07-19T04:56:08.055Z,10.50
2017-07-19T04:58:35.376Z,10.43
2017-07-19T05:01:02.733Z,11.47
2017-07-19T05:03:30.046Z,10.70
2017-07-19T05:05:57.372Z,10.77
2017-07-19T05:08:24.763Z,10.93
2017-07-19T05:10:52.055Z,10.93
2017-07-19T05:13:19.379Z,11.00
2017-07-19T05:15:47.623Z,10.53
2017-07-19T05:18:14.958Z,11.17
2017-07-19T05:20:42.266Z,11.10
2017-07-19T05:23:09.949Z,10.67
2017-07-19T05:25:37.280Z,10.20
2017-07-19T05:28:04.594Z,9.80
2017-07-19T05:30:31.931Z,9.87
2017-07-19T05:32:59.244Z,9.80
2017-07-19T05:35:26.545Z,10.70
2017-07-19T05:37:53.887Z,10.30
2017-07-19T05:40:21.195Z,9.60
2017-07-19T05:42:48.558Z,10.47
2017-07-19T05:45:15.885Z,9.23
2017-07-19T05:47:43.198Z,10.20
2017-07-19T05:50:10.587Z,10.07
2017-07-19T05:52:37.890Z,10.43
2017-07-19T05:55:05.201Z,9.90
2017-07-19T05:57:32.526Z,9.57
2017-07-19T05:59:59.845Z,9.90
2017-07-19T06:02:27.150Z,10.03
2017-07-19T06:04:54.835Z,10.20
2017-07-19T06:07:23.011Z,9.70
2017-07-19T06:09:51.989Z,9.20
2017-07-19T06:12:21.235Z,9.60
2017-07-19T06:14:48.591Z,9.20
2017-07-19T06:17:15.894Z,9.97
2017-07-19T06:19:43.180Z,9.43
2017-07-19T06:22:10.793Z,9.23
2017-07-19T06:24:38.133Z,9.33
2017-07-19T06:27:05.500Z,9.30
2017-07-19T06:29:33.046Z,9.33
2017-07-19T06:32:00.385Z,9.13
2017-07-19T06:34:27.714Z,9.60
2017-07-19T06:36:55.083Z,9.17
2017-07-19T06:39:22.403Z,9.27
2017-07-19T06:41:51.728Z,9.27
2017-07-19T06:44:19.028Z,9.10
2017-07-19T06:46:46.371Z,9.00
2017-07-19T06:49:13.695Z,9.00
2017-07-19T06:51:41.054Z,8.77
2017-07-19T06:54:08.401Z,8.73
2017-07-19T06:56:35.724Z,9.83
2017-07-19T06:59:03.069Z,9.43
2017-07-19T07:01:30.379Z,10.10
2017-07-19T07:03:57.702Z,8.13
2017-07-19T07:06:25.005Z,8.87
2017-07-19T07:08:52.335Z,9.73
2017-07-19T07:11:19.647Z,9.30
2017-07-19T07:13:46.952Z,9.10
2017-07-19T07:16:14.243Z,8.53
2017-07-19T07:18:41.627Z,8.40
2017-07-19T07:21:08.926Z,9.13
2017-07-19T07:23:36.288Z,9.07
2017-07-19T07:26:03.821Z,8.40
2017-07-19T07:28:31.153Z,8.13
2017-07-19T07:30:58.481Z,8.60
2017-07-19T07:33:25.794Z,8.73
2017-07-19T07:35:53.120Z,8.80
2017-07-19T07:38:20.461Z,8.50
2017-07-19T07:40:47.773Z,8.70
2017-07-19T07:43:15.104Z,8.30
2017-07-19T07:45:42.503Z,8.83
2017-07-19T07:48:09.815Z,8.70
2017-07-19T07:50:37.150Z,8.40
2017-07-19T07:53:04.482Z,7.93
2017-07-19T07:55:31.827Z,8.20
2017-07-19T07:57:59.135Z,8.07
2017-07-19T08:00:26.451Z,8.63
2017-07-19T08:02:53.767Z,8.40
2017-07-19T08:05:21.056Z,10.30
2017-07-19T08:07:48.421Z,9.57
2017-07-19T08:10:15.751Z,7.77
2017-07-19T08:12:43.043Z,9.03
2017-07-19T08:15:10.348Z,8.57
2017-07-19T08:17:37.681Z,7.87
2017-07-19T08:20:05.008Z,8.30
2017-07-19T08:22:32.454Z,9.43
2017-07-19T08:24:59.768Z,8.13
2017-07-19T08:27:27.081Z,7.70
2017-07-19T08:29:54.368Z,7.70
2017-07-19T08:32:21.704Z,8.33
2017-07-19T08:34:48.990Z,8.50
2017-07-19T08:37:16.296Z,7.63
2017-07-19T08:39:43.646Z,8.33
2017-07-19T08:42:10.969Z,8.10
2017-07-19T08:44:38.464Z,7.83
2017-07-19T08:47:05.767Z,8.00
2017-07-19T08:49:33.115Z,7.90
2017-07-19T08:52:00.432Z,8.10
2017-07-19T08:54:27.759Z,7.70
2017-07-19T08:56:55.049Z,7.77
2017-07-19T08:59:22.360Z,8.17
2017-07-19T09:01:49.690Z,7.77
2017-07-19T09:04:17.012Z,9.20
2017-07-19T09:06:44.319Z,8.47
2017-07-19T09:09:11.633Z,8.27
2017-07-19T09:11:38.973Z,8.40
2017-07-19T09:14:06.355Z,7.47
2017-07-19T09:16:33.988Z,7.77
2017-07-19T09:19:01.319Z,8.20
2017-07-19T09:21:28.669Z,7.70
2017-07-19T09:23:55.978Z,7.43
2017-07-19T09:26:23.294Z,8.17
2017-07-19T09:28:50.582Z,7.90
2017-07-19T09:31:17.921Z,7.60
2017-07-19T09:33:45.262Z,8.03
2017-07-19T09:36:12.667Z,7.93
2017-07-19T09:38:40.626Z,7.50
2017-07-19T09:41:07.946Z,8.00
2017-07-19T09:43:35.251Z,7.43
2017-07-19T09:46:02.572Z,7.77
2017-07-19T09:48:29.906Z,7.50
2017-07-19T09:50:57.256Z,7.97
2017-07-19T09:53:24.566Z,7.90
2017-07-19T09:55:51.861Z,7.77
2017-07-19T09:58:19.274Z,7.67
2017-07-19T10:00:46.629Z,7.23
2017-07-19T10:03:13.985Z,7.13
2017-07-19T10:05:41.593Z,7.13
2017-07-19T10:08:09.062Z,7.37
2017-07-19T10:10:36.389Z,7.47
2017-07-19T10:13:03.757Z,6.80
2017-07-19T10:15:31.167Z,7.17
2017-07-19T10:17:58.500Z,7.00
2017-07-19T10:20:25.801Z,6.57
2017-07-19T10:22:53.115Z,7.40
2017-07-19T10:25:20.429Z,7.30
2017-07-19T10:27:47.744Z,6.60
2017-07-19T10:30:15.032Z,7.37
2017-07-19T10:32:42.341Z,7.07
2017-07-19T10:35:09.662Z,7.30
2017-07-19T10:37:36.950Z,6.33
2017-07-19T10:40:05.205Z,7.07
2017-07-19T10:42:32.536Z,6.83
2017-07-19T10:44:59.855Z,7.20
2017-07-19T10:47:27.133Z,6.83
2017-07-19T10:49:54.492Z,6.50
2017-07-19T10:52:21.793Z,7.20
2017-07-19T10:54:49.104Z,7.43
2017-07-19T10:57:16.418Z,7.30
2017-07-19T10:59:43.765Z,6.57
2017-07-19T11:02:11.121Z,7.10
2017-07-19T11:04:38.447Z,7.10
2017-07-19T11:07:06.154Z,6.20
2017-07-19T11:09:33.454Z,6.77
2017-07-19T11:12:00.778Z,7.10
2017-07-19T11:14:28.156Z,7.20
2017-07-19T11:16:55.489Z,7.03
2017-07-19T11:19:24.482Z,7.10
2017-07-19T11:21:51.791Z,7.33
2017-07-19T11:24:19.097Z,6.80
2017-07-19T11:26:46.438Z,6.97
2017-07-19T11:29:13.757Z,6.13
2017-07-19T11:31:41.075Z,6.40
2017-07-19T11:34:08.450Z,6.80
2017-07-19T11:36:35.787Z,6.53
2017-07-19T11:39:03.125Z,6.87
2017-07-19T11:41:30.460Z,6.57
2017-07-19T11:43:57.791Z,6.80
2017-07-19T11:46:25.249Z,6.53
2017-07-19T11:48:52.573Z,6.90
2017-07-19T11:51:19.874Z,6.00
2017-07-19T11:53:48.017Z,6.50
2017-07-19T11:56:15.342Z,6.20
2017-07-19T11:58:42.680Z,6.83
2017-07-19T12:01:10.005Z,6.57
2017-07-19T12:03:37.304Z,6.07
2017-07-19T12:06:04.617Z,6.17
2017-07-19T12:08:31.970Z,6.60
2017-07-19T12:11:06.437Z,6.57
2017-07-19T12:13:34.413Z,6.33
2017-07-19T12:16:01.755Z,6.70
2017-07-19T12:18:29.398Z,6.33
2017-07-19T12:20:56.739Z,7.00
2017-07-19T12:23:24.044Z,6.00
2017-07-19T12:25:51.358Z,6.33
2017-07-19T12:28:18.648Z,5.80
2017-07-19T12:30:45.957Z,6.77
2017-07-19T12:33:13.259Z,5.80
2017-07-19T12:35:42.273Z,6.50
2017-07-19T12:38:09.568Z,6.50
2017-07-19T12:40:39.028Z,6.10
2017-07-19T12:43:06.337Z,6.43
2017-07-19T12:45:33.909Z,6.17
2017-07-19T12:48:01.218Z,6.60
2017-07-19T12:50:28.552Z,6.40
2017-07-19T12:52:55.849Z,6.37
2017-07-19T12:55:23.209Z,7.20
2017-07-19T12:57:50.530Z,6.47
2017-07-19T13:00:17.863Z,6.57
2017-07-19T13:02:45.179Z,6.80
2017-07-19T13:05:12.490Z,6.80
2017-07-19T13:07:39.801Z,7.43
2017-07-19T13:10:07.134Z,6.70
2017-07-19T13:12:34.440Z,6.60
2017-07-19T13:15:01.724Z,6.83
2017-07-19T13:17:29.031Z,6.90
2017-07-19T13:19:56.380Z,6.63
2017-07-19T13:22:23.677Z,6.40
2017-07-19T13:24:50.998Z,6.37
2017-07-19T13:27:18.351Z,6.03
2017-07-19T13:29:45.660Z,6.40
2017-07-19T13:32:12.967Z,6.80
2017-07-19T13:34:40.281Z,6.10
2017-07-19T13:37:07.577Z,6.47
2017-07-19T13:39:34.900Z,6.20
2017-07-19T13:42:02.189Z,5.80
2017-07-19T13:44:29.507Z,6.00
2017-07-19T13:46:56.827Z,5.65
2017-07-19T13:49:24.216Z,5.50
2017-07-19T13:51:51.533Z,5.43
2017-07-19T13:54:18.850Z,5.50
2017-07-19T13:56:46.153Z,5.60
2017-07-19T13:59:13.479Z,5.12
2017-07-19T14:01:40.784Z,5.53
2017-07-19T14:04:08.101Z,5.78
2017-07-19T14:06:35.397Z,5.57
2017-07-19T14:09:02.700Z,5.50
2017-07-19T14:11:30.000Z,5.22
2017-07-19T14:13:57.309Z,5.53
2017-07-19T14:16:24.614Z,5.15
2017-07-19T14:18:51.931Z,4.80
2017-07-19T14:21:19.250Z,5.70
2017-07-19T14:23:46.567Z,5.10
2017-07-19T14:26:13.917Z,4.97
2017-07-19T14:28:41.234Z,5.07
2017-07-19T14:31:08.541Z,5.43
2017-07-19T14:33:35.847Z,5.07
2017-07-19T14:36:03.206Z,5.35
2017-07-19T14:38:30.501Z,4.97
2017-07-19T14:40:57.808Z,4.82
2017-07-19T14:43:25.123Z,5.30
2017-07-19T14:45:52.432Z,5.85
2017-07-19T14:48:20.076Z,5.32
2017-07-19T14:50:47.413Z,5.68
2017-07-19T14:53:14.739Z,5.37
2017-07-19T14:55:42.023Z,5.87
2017-07-19T14:58:09.345Z,5.65
2017-07-19T15:00:36.673Z,5.65
2017-07-19T15:03:03.981Z,5.62
2017-07-19T15:05:31.270Z,5.05
2017-07-19T15:07:58.627Z,5.30
2017-07-19T15:10:25.978Z,5.47
2017-07-19T15:12:53.294Z,5.68
2017-07-19T15:15:20.622Z,5.10
2017-07-19T15:17:47.953Z,5.05
2017-07-19T15:20:15.246Z,5.22
2017-07-19T15:22:42.536Z,5.10
2017-07-19T15:25:09.839Z,4.93
2017-07-19T15:27:37.143Z,5.18
2017-07-19T15:30:04.487Z,4.70
2017-07-19T15:32:31.791Z,5.15
2017-07-19T15:34:59.165Z,5.12
2017-07-19T15:37:26.475Z,5.00
2017-07-19T15:39:53.787Z,4.60
2017-07-19T15:42:21.094Z,5.00
2017-07-19T15:44:48.420Z,5.12
2017-07-19T15:47:15.771Z,5.30
2017-07-19T15:49:43.100Z,5.40
2017-07-19T15:52:10.438Z,4.87
2017-07-19T15:54:38.666Z,5.07
2017-07-19T15:57:05.992Z,5.37
2017-07-19T15:59:33.823Z,5.12
2017-07-19T16:02:01.177Z,5.12
2017-07-19T16:04:28.474Z,4.70
2017-07-19T16:06:55.815Z,4.90
2017-07-19T16:09:23.095Z,5.10
2017-07-19T16:11:50.411Z,5.68
2017-07-19T16:14:17.728Z,7.03
2017-07-19T16:16:45.066Z,23.52
2017-07-19T16:19:12.382Z,7.55
2017-07-19T16:21:39.698Z,7.00
2017-07-19T16:24:06.994Z,6.50
2017-07-19T16:26:34.556Z,5.57
2017-07-19T16:29:01.903Z,5.40
2017-07-19T16:31:29.238Z,5.53
2017-07-19T16:33:56.557Z,5.50
2017-07-19T16:36:23.854Z,5.85
2017-07-19T16:38:51.211Z,5.60
2017-07-19T16:41:18.514Z,5.93
2017-07-19T16:43:45.881Z,6.35
2017-07-19T16:46:13.214Z,5.70
2017-07-19T16:48:40.563Z,6.40
2017-07-19T16:51:07.850Z,5.85
2017-07-19T16:53:35.154Z,6.50
2017-07-19T16:56:02.453Z,6.97
2017-07-19T16:58:30.000Z,6.50
2017-07-19T17:00:57.327Z,6.53
2017-07-19T17:03:24.693Z,7.47
2017-07-19T17:05:52.232Z,6.85
2017-07-19T17:08:19.563Z,7.12
2017-07-19T17:10:46.899Z,6.95
2017-07-19T17:13:14.228Z,6.47
2017-07-19T17:15:41.517Z,7.40
2017-07-19T17:18:08.817Z,7.65
2017-07-19T17:20:36.128Z,6.95
2017-07-19T17:23:03.429Z,7.10
2017-07-19T17:25:30.760Z,7.43
2017-07-19T17:27:58.077Z,6.25
2017-07-19T17:30:25.385Z,6.60
2017-07-19T17:32:52.691Z,7.55
2017-07-19T17:35:20.036Z,7.03
2017-07-19T17:37:47.360Z,7.18
2017-07-19T17:40:14.709Z,7.10
2017-07-19T17:42:42.034Z,7.25
2017-07-19T17:45:09.397Z,7.40
2017-07-19T17:47:36.688Z,6.37
2017-07-19T17:50:04.019Z,7.93
2017-07-19T17:52:31.327Z,6.93
2017-07-19T17:54:58.639Z,8.03
2017-07-19T17:57:26.102Z,7.70
2017-07-19T17:59:53.430Z,8.40
2017-07-19T18:02:20.768Z,8.00
2017-07-19T18:04:48.098Z,7.97
2017-07-19T18:07:15.413Z,8.00
2017-07-19T18:09:42.731Z,8.30
2017-07-19T18:12:10.138Z,8.37
2017-07-19T18:14:37.533Z,7.97
2017-07-19T18:17:04.844Z,9.20
2017-07-19T18:19:32.145Z,8.70
2017-07-19T18:21:59.453Z,8.80
2017-07-19T18:24:26.921Z,8.63
2017-07-19T18:26:55.031Z,8.37
2017-07-19T18:29:22.432Z,8.37
2017-07-19T18:31:49.778Z,9.47
2017-07-19T18:34:17.137Z,9.53
2017-07-19T18:36:45.514Z,9.33
2017-07-19T18:39:12.858Z,8.93
2017-07-19T18:41:40.157Z,9.77
2017-07-19T18:44:07.483Z,9.53
2017-07-19T18:46:34.786Z,9.70
2017-07-19T18:49:02.118Z,10.17
2017-07-19T18:51:29.429Z,10.17
2017-07-19T18:53:56.795Z,10.07
2017-07-19T18:56:24.119Z,10.30
2017-07-19T18:58:51.492Z,11.10
2017-07-19T19:01:18.818Z,10.50
2017-07-19T19:03:46.131Z,9.83
2017-07-19T19:06:13.460Z,10.47
2017-07-19T19:08:40.765Z,10.07
2017-07-19T19:11:08.103Z,10.27
2017-07-19T19:13:35.420Z,10.60
2017-07-19T19:16:02.735Z,10.93
2017-07-19T19:18:30.276Z,10.57
2017-07-19T19:20:57.602Z,10.60
2017-07-19T19:23:24.911Z,10.63
2017-07-19T19:25:52.425Z,10.93
2017-07-19T19:28:19.759Z,10.97
2017-07-19T19:30:47.578Z,11.30
2017-07-19T19:33:14.895Z,11.20
2017-07-19T19:35:42.211Z,10.70
2017-07-19T19:38:09.554Z,10.77
2017-07-19T19:40:36.902Z,12.97
2017-07-19T19:43:04.238Z,11.50
2017-07-19T19:45:31.537Z,11.70
2017-07-19T19:47:58.874Z,11.13
2017-07-19T19:50:26.185Z,10.43
2017-07-19T19:52:53.510Z,11.70
2017-07-19T19:55:20.821Z,10.30
2017-07-19T19:57:48.186Z,10.87
2017-07-19T20:00:15.497Z,11.00
2017-07-19T20:02:42.879Z,10.23
2017-07-19T20:05:10.186Z,11.20
2017-07-19T20:07:37.515Z,10.80
2017-07-19T20:10:04.901Z,11.33
2017-07-19T20:12:32.257Z,12.07
2017-07-19T20:14:59.562Z,11.47
2017-07-19T20:17:26.915Z,11.07
2017-07-19T20:19:54.229Z,10.60
2017-07-19T20:22:21.576Z,11.40
2017-07-19T20:24:48.910Z,10.87
2017-07-19T20:27:16.232Z,10.83
2017-07-19T20:29:43.561Z,12.57
2017-07-19T20:32:10.904Z,14.70
2017-07-19T20:34:38.258Z,12.73
2017-07-19T20:37:05.557Z,12.17
2017-07-19T20:39:32.896Z,12.60
2017-07-19T20:42:00.210Z,12.60
2017-07-19T20:44:27.541Z,11.80
2017-07-19T20:46:54.902Z,12.00
2017-07-19T20:49:22.242Z,11.83
2017-07-19T20:51:49.552Z,13.00
2017-07-19T20:54:16.928Z,12.20
2017-07-19T20:56:44.255Z,11.40
2017-07-19T20:59:11.626Z,10.87
2017-07-19T21:01:38.933Z,11.73
2017-07-19T21:04:06.302Z,11.67
2017-07-19T21:06:33.629Z,11.10
2017-07-19T21:09:00.952Z,11.17
2017-07-19T21:11:28.327Z,11.57
2017-07-19T21:13:55.625Z,11.80
2017-07-19T21:16:22.947Z,11.80
2017-07-19T21:18:50.257Z,11.30
2017-07-19T21:21:17.590Z,11.47
2017-07-19T21:23:44.927Z,11.70
2017-07-19T21:26:12.271Z,11.70
2017-07-19T21:28:39.590Z,12.40
2017-07-19T21:31:06.972Z,11.57
2017-07-19T21:33:34.577Z,12.10
2017-07-19T21:36:01.942Z,11.77
2017-07-19T21:38:29.300Z,12.53
2017-07-19T21:40:56.597Z,11.80
2017-07-19T21:43:23.975Z,12.33
2017-07-19T21:45:51.298Z,12.60
2017-07-19T21:48:18.624Z,12.10
2017-07-19T21:50:45.966Z,12.50
2017-07-19T21:53:13.334Z,11.70
2017-07-19T21:55:40.660Z,11.57
2017-07-19T21:58:07.983Z,13.00
2017-07-19T22:00:35.317Z,11.60
2017-07-19T22:03:02.632Z,11.97
2017-07-19T22:05:30.402Z,12.40
2017-07-19T22:07:57.727Z,12.80
2017-07-19T22:10:25.023Z,11.67
2017-07-19T22:12:52.357Z,12.73
2017-07-19T22:15:19.685Z,12.37
2017-07-19T22:17:47.036Z,11.90
2017-07-19T22:20:14.372Z,12.40
2017-07-19T22:22:41.727Z,12.50
2017-07-19T22:25:09.074Z,13.30
2017-07-19T22:27:36.390Z,12.83
2017-07-19T22:30:03.760Z,13.63
2017-07-19T22:32:31.058Z,13.87
2017-07-19T22:34:58.391Z,13.83
2017-07-19T22:37:25.703Z,13.33
2017-07-19T22:39:53.026Z,13.70
2017-07-19T22:42:20.338Z,13.33
2017-07-19T22:44:47.690Z,14.30
2017-07-19T22:47:15.022Z,13.50
2017-07-19T22:49:42.353Z,14.00
2017-07-19T22:52:09.715Z,18.50
2017-07-19T22:54:37.046Z,22.50
2017-07-19T22:57:04.412Z,23.63
2017-07-19T22:59:31.718Z,26.40
2017-07-19T23:01:59.041Z,26.47
2017-07-19T23:04:26.349Z,32.53
2017-07-19T23:06:53.718Z,29.60
2017-07-19T23:09:21.031Z,31.77
2017-07-19T23:11:48.349Z,28.50
2017-07-19T23:14:15.670Z,30.93
2017-07-19T23:16:43.051Z,29.70
2017-07-19T23:19:10.339Z,28.10
2017-07-19T23:21:37.673Z,27.20
2017-07-19T23:24:05.133Z,37.23
2017-07-19T23:26:32.493Z,29.47
2017-07-19T23:28:59.813Z,28.60
2017-07-19T23:31:27.121Z,31.70
2017-07-19T23:33:54.455Z,31.60
2017-07-19T23:36:21.758Z,28.47
2017-07-19T23:38:49.102Z,33.30
2017-07-19T23:41:16.432Z,31.70
2017-07-19T23:43:43.740Z,34.23
2017-07-19T23:46:11.040Z,36.67
2017-07-19T23:48:38.371Z,35.60
2017-07-19T23:51:05.691Z,33.20
2017-07-19T23:53:33.624Z,38.30
2017-07-19T23:56:00.942Z,35.90
2017-07-19T23:58:28.271Z,32.90
